sensor_id;sensor_type;location;lat;lon;timestamp;P1;durP1;ratioP1;P2;durP2;ratioP2
78004;SDS011;67209;51.698;-0.292;2023-04-24T00:02:18;30.63;;;12.73;;
78004;SDS011;67209;51.698;-0.292;2023-04-24T00:04:44;29.00;;;13.75;;
78004;SDS011;67209;51.698;-0.292;2023-04-24T00:07:10;30.25;;;13.32;;
78004;SDS011;67209;51.698;-0.292;2023-04-24T00:09:37;32.55;;;13.45;;
78004;SDS011;67209;51.698;-0.292;2023-04-24T00:12:03;27.33;;;13.65;;
78004;SDS011;67209;51.698;-0.292;2023-04-24T00:14:32;32.50;;;13.98;;
78004;SDS011;67209;51.698;-0.292;2023-04-24T00:17:00;27.55;;;12.75;;
78004;SDS011;67209;51.698;-0.292;2023-04-24T00:19:27;30.60;;;13.90;;
78004;SDS011;67209;51.698;-0.292;2023-04-24T00:21:53;26.83;;;13.20;;
78004;SDS011;67209;51.698;-0.292;2023-04-24T00:24:20;31.75;;;13.45;;
78004;SDS011;67209;51.698;-0.292;2023-04-24T00:26:46;28.23;;;12.52;;
78004;SDS011;67209;51.698;-0.292;2023-04-24T00:29:12;28.92;;;12.80;;
78004;SDS011;67209;51.698;-0.292;2023-04-24T00:31:38;27.70;;;12.68;;
78004;SDS011;67209;51.698;-0.292;2023-04-24T00:34:04;29.60;;;13.82;;
78004;SDS011;67209;51.698;-0.292;2023-04-24T00:36:30;26.90;;;12.43;;
78004;SDS011;67209;51.698;-0.292;2023-04-24T00:38:57;29.15;;;13.38;;
78004;SDS011;67209;51.698;-0.292;2023-04-24T00:41:26;25.77;;;11.20;;
78004;SDS011;67209;51.698;-0.292;2023-04-24T00:43:52;25.45;;;11.95;;
78004;SDS011;67209;51.698;-0.292;2023-04-24T00:46:18;23.80;;;11.13;;
78004;SDS011;67209;51.698;-0.292;2023-04-24T00:48:44;23.20;;;10.88;;
78004;SDS011;67209;51.698;-0.292;2023-04-24T00:51:10;29.95;;;12.35;;
78004;SDS011;67209;51.698;-0.292;2023-04-24T00:53:36;24.48;;;11.60;;
78004;SDS011;67209;51.698;-0.292;2023-04-24T00:56:02;29.42;;;12.38;;
78004;SDS011;67209;51.698;-0.292;2023-04-24T00:58:28;26.08;;;11.38;;
78004;SDS011;67209;51.698;-0.292;2023-04-24T01:00:56;25.67;;;12.35;;
78004;SDS011;67209;51.698;-0.292;2023-04-24T01:03:22;27.23;;;11.57;;
78004;SDS011;67209;51.698;-0.292;2023-04-24T01:05:51;27.85;;;12.38;;
78004;SDS011;67209;51.698;-0.292;2023-04-24T01:08:17;29.42;;;12.10;;
78004;SDS011;67209;51.698;-0.292;2023-04-24T01:10:44;27.63;;;11.95;;
78004;SDS011;67209;51.698;-0.292;2023-04-24T01:13:11;28.13;;;12.70;;
78004;SDS011;67209;51.698;-0.292;2023-04-24T01:15:37;24.10;;;11.32;;
78004;SDS011;67209;51.698;-0.292;2023-04-24T01:18:03;24.52;;;11.60;;
78004;SDS011;67209;51.698;-0.292;2023-04-24T01:20:29;26.45;;;11.95;;
78004;SDS011;67209;51.698;-0.292;2023-04-24T01:22:56;27.15;;;12.35;;
78004;SDS011;67209;51.698;-0.292;2023-04-24T01:25:23;25.60;;;12.32;;
78004;SDS011;67209;51.698;-0.292;2023-04-24T01:27:50;29.13;;;13.02;;
78004;SDS011;67209;51.698;-0.292;2023-04-24T01:30:16;29.15;;;12.50;;
78004;SDS011;67209;51.698;-0.292;2023-04-24T01:32:42;27.30;;;13.38;;
78004;SDS011;67209;51.698;-0.292;2023-04-24T01:35:09;29.42;;;12.43;;
78004;SDS011;67209;51.698;-0.292;2023-04-24T01:37:35;24.38;;;11.70;;
78004;SDS011;67209;51.698;-0.292;2023-04-24T01:40:05;29.52;;;12.23;;
78004;SDS011;67209;51.698;-0.292;2023-04-24T01:42:31;28.90;;;13.65;;
78004;SDS011;67209;51.698;-0.292;2023-04-24T01:44:57;26.33;;;12.63;;
78004;SDS011;67209;51.698;-0.292;2023-04-24T01:47:24;31.40;;;14.23;;
78004;SDS011;67209;51.698;-0.292;2023-04-24T01:49:51;25.45;;;12.55;;
78004;SDS011;67209;51.698;-0.292;2023-04-24T01:52:18;26.88;;;12.77;;
78004;SDS011;67209;51.698;-0.292;2023-04-24T01:54:45;30.48;;;12.10;;
78004;SDS011;67209;51.698;-0.292;2023-04-24T01:57:11;30.58;;;14.30;;
78004;SDS011;67209;51.698;-0.292;2023-04-24T01:59:37;27.70;;;13.30;;
78004;SDS011;67209;51.698;-0.292;2023-04-24T02:02:03;30.80;;;12.95;;
78004;SDS011;67209;51.698;-0.292;2023-04-24T02:04:29;29.67;;;13.25;;
78004;SDS011;67209;51.698;-0.292;2023-04-24T02:06:55;32.80;;;13.50;;
78004;SDS011;67209;51.698;-0.292;2023-04-24T02:09:22;30.02;;;13.48;;
78004;SDS011;67209;51.698;-0.292;2023-04-24T02:11:48;28.38;;;12.65;;
78004;SDS011;67209;51.698;-0.292;2023-04-24T02:14:14;33.58;;;13.57;;
78004;SDS011;67209;51.698;-0.292;2023-04-24T02:16:40;29.67;;;13.85;;
78004;SDS011;67209;51.698;-0.292;2023-04-24T02:19:06;29.52;;;12.20;;
78004;SDS011;67209;51.698;-0.292;2023-04-24T02:21:32;26.92;;;11.93;;
78004;SDS011;67209;51.698;-0.292;2023-04-24T02:23:58;25.48;;;11.55;;
78004;SDS011;67209;51.698;-0.292;2023-04-24T02:26:24;25.15;;;11.43;;
78004;SDS011;67209;51.698;-0.292;2023-04-24T02:28:51;28.95;;;12.00;;
78004;SDS011;67209;51.698;-0.292;2023-04-24T02:31:16;26.67;;;10.90;;
78004;SDS011;67209;51.698;-0.292;2023-04-24T02:33:43;29.17;;;11.73;;
78004;SDS011;67209;51.698;-0.292;2023-04-24T02:36:09;23.10;;;11.63;;
78004;SDS011;67209;51.698;-0.292;2023-04-24T02:38:35;27.05;;;10.88;;
78004;SDS011;67209;51.698;-0.292;2023-04-24T02:41:01;23.30;;;11.30;;
78004;SDS011;67209;51.698;-0.292;2023-04-24T02:43:31;25.13;;;11.27;;
78004;SDS011;67209;51.698;-0.292;2023-04-24T02:45:57;11.32;;;5.00;;
78004;SDS011;67209;51.698;-0.292;2023-04-24T02:48:23;18.55;;;7.13;;
78004;SDS011;67209;51.698;-0.292;2023-04-24T02:50:49;8.93;;;3.65;;
78004;SDS011;67209;51.698;-0.292;2023-04-24T02:53:15;15.80;;;5.55;;
78004;SDS011;67209;51.698;-0.292;2023-04-24T02:55:41;14.50;;;6.15;;
78004;SDS011;67209;51.698;-0.292;2023-04-24T02:58:07;11.80;;;4.60;;
78004;SDS011;67209;51.698;-0.292;2023-04-24T03:00:33;9.70;;;3.65;;
78004;SDS011;67209;51.698;-0.292;2023-04-24T03:08:33;15.35;;;6.25;;
78004;SDS011;67209;51.698;-0.292;2023-04-24T03:10:59;16.55;;;7.30;;
78004;SDS011;67209;51.698;-0.292;2023-04-24T03:13:25;20.45;;;6.97;;
78004;SDS011;67209;51.698;-0.292;2023-04-24T03:15:51;15.43;;;6.40;;
78004;SDS011;67209;51.698;-0.292;2023-04-24T03:18:18;15.27;;;6.80;;
78004;SDS011;67209;51.698;-0.292;2023-04-24T03:20:46;19.65;;;7.38;;
78004;SDS011;67209;51.698;-0.292;2023-04-24T03:23:12;14.00;;;6.85;;
78004;SDS011;67209;51.698;-0.292;2023-04-24T03:25:38;15.45;;;6.55;;
78004;SDS011;67209;51.698;-0.292;2023-04-24T03:28:04;13.98;;;5.82;;
78004;SDS011;67209;51.698;-0.292;2023-04-24T03:30:30;18.77;;;7.70;;
78004;SDS011;67209;51.698;-0.292;2023-04-24T03:32:56;17.42;;;7.85;;
78004;SDS011;67209;51.698;-0.292;2023-04-24T03:35:22;20.42;;;8.20;;
78004;SDS011;67209;51.698;-0.292;2023-04-24T03:37:48;17.77;;;6.90;;
78004;SDS011;67209;51.698;-0.292;2023-04-24T03:40:14;16.88;;;6.43;;
78004;SDS011;67209;51.698;-0.292;2023-04-24T03:42:40;15.55;;;7.20;;
78004;SDS011;67209;51.698;-0.292;2023-04-24T03:45:06;16.63;;;7.25;;
78004;SDS011;67209;51.698;-0.292;2023-04-24T03:47:33;16.27;;;6.80;;
78004;SDS011;67209;51.698;-0.292;2023-04-24T03:49:59;15.13;;;7.75;;
78004;SDS011;67209;51.698;-0.292;2023-04-24T03:52:25;17.45;;;6.82;;
78004;SDS011;67209;51.698;-0.292;2023-04-24T03:54:51;15.65;;;6.53;;
78004;SDS011;67209;51.698;-0.292;2023-04-24T03:57:17;14.70;;;7.07;;
78004;SDS011;67209;51.698;-0.292;2023-04-24T03:59:43;15.13;;;7.15;;
78004;SDS011;67209;51.698;-0.292;2023-04-24T04:02:09;13.88;;;6.72;;
78004;SDS011;67209;51.698;-0.292;2023-04-24T04:04:35;14.63;;;6.68;;
78004;SDS011;67209;51.698;-0.292;2023-04-24T04:07:01;16.35;;;7.20;;
78004;SDS011;67209;51.698;-0.292;2023-04-24T04:09:28;14.75;;;6.57;;
78004;SDS011;67209;51.698;-0.292;2023-04-24T04:11:54;13.77;;;6.30;;
78004;SDS011;67209;51.698;-0.292;2023-04-24T04:14:21;17.88;;;6.30;;
78004;SDS011;67209;51.698;-0.292;2023-04-24T04:16:47;15.77;;;5.65;;
78004;SDS011;67209;51.698;-0.292;2023-04-24T04:19:13;18.92;;;6.18;;
78004;SDS011;67209;51.698;-0.292;2023-04-24T04:21:39;13.50;;;5.05;;
78004;SDS011;67209;51.698;-0.292;2023-04-24T04:24:05;15.35;;;5.10;;
78004;SDS011;67209;51.698;-0.292;2023-04-24T04:26:32;11.27;;;4.55;;
78004;SDS011;67209;51.698;-0.292;2023-04-24T04:28:58;12.18;;;4.60;;
78004;SDS011;67209;51.698;-0.292;2023-04-24T04:31:25;11.68;;;4.97;;
78004;SDS011;67209;51.698;-0.292;2023-04-24T04:33:51;19.13;;;5.57;;
78004;SDS011;67209;51.698;-0.292;2023-04-24T04:36:17;15.95;;;6.40;;
78004;SDS011;67209;51.698;-0.292;2023-04-24T04:38:43;15.60;;;5.07;;
78004;SDS011;67209;51.698;-0.292;2023-04-24T04:41:10;11.80;;;5.03;;
78004;SDS011;67209;51.698;-0.292;2023-04-24T04:43:36;13.48;;;3.65;;
78004;SDS011;67209;51.698;-0.292;2023-04-24T04:46:04;11.13;;;5.13;;
78004;SDS011;67209;51.698;-0.292;2023-04-24T04:48:31;11.02;;;4.68;;
78004;SDS011;67209;51.698;-0.292;2023-04-24T04:50:57;10.88;;;4.68;;
78004;SDS011;67209;51.698;-0.292;2023-04-24T04:53:23;8.30;;;2.78;;
78004;SDS011;67209;51.698;-0.292;2023-04-24T04:55:50;13.13;;;5.13;;
78004;SDS011;67209;51.698;-0.292;2023-04-24T04:58:16;8.82;;;3.67;;
78004;SDS011;67209;51.698;-0.292;2023-04-24T05:00:42;10.27;;;3.58;;
78004;SDS011;67209;51.698;-0.292;2023-04-24T05:03:08;8.45;;;3.85;;
78004;SDS011;67209;51.698;-0.292;2023-04-24T05:05:34;14.00;;;5.53;;
78004;SDS011;67209;51.698;-0.292;2023-04-24T05:08:00;8.00;;;3.15;;
78004;SDS011;67209;51.698;-0.292;2023-04-24T05:10:26;10.38;;;3.10;;
78004;SDS011;67209;51.698;-0.292;2023-04-24T05:12:52;13.18;;;5.25;;
78004;SDS011;67209;51.698;-0.292;2023-04-24T05:15:18;10.23;;;3.78;;
78004;SDS011;67209;51.698;-0.292;2023-04-24T05:17:43;11.65;;;3.63;;
78004;SDS011;67209;51.698;-0.292;2023-04-24T05:20:10;10.52;;;3.22;;
78004;SDS011;67209;51.698;-0.292;2023-04-24T05:22:36;8.40;;;3.72;;
78004;SDS011;67209;51.698;-0.292;2023-04-24T05:25:02;11.90;;;3.75;;
78004;SDS011;67209;51.698;-0.292;2023-04-24T05:27:28;5.97;;;2.33;;
78004;SDS011;67209;51.698;-0.292;2023-04-24T05:29:54;9.32;;;4.30;;
78004;SDS011;67209;51.698;-0.292;2023-04-24T05:32:20;10.15;;;3.92;;
78004;SDS011;67209;51.698;-0.292;2023-04-24T05:34:46;12.30;;;3.58;;
78004;SDS011;67209;51.698;-0.292;2023-04-24T05:37:12;11.27;;;3.90;;
78004;SDS011;67209;51.698;-0.292;2023-04-24T05:39:38;9.52;;;4.00;;
78004;SDS011;67209;51.698;-0.292;2023-04-24T05:42:05;9.05;;;4.07;;
78004;SDS011;67209;51.698;-0.292;2023-04-24T05:44:32;10.60;;;3.50;;
78004;SDS011;67209;51.698;-0.292;2023-04-24T05:46:58;7.20;;;2.97;;
78004;SDS011;67209;51.698;-0.292;2023-04-24T05:49:24;8.75;;;3.65;;
78004;SDS011;67209;51.698;-0.292;2023-04-24T05:51:50;13.98;;;3.42;;
78004;SDS011;67209;51.698;-0.292;2023-04-24T05:54:16;10.38;;;2.78;;
78004;SDS011;67209;51.698;-0.292;2023-04-24T05:56:42;8.63;;;3.30;;
78004;SDS011;67209;51.698;-0.292;2023-04-24T05:59:08;9.93;;;2.88;;
78004;SDS011;67209;51.698;-0.292;2023-04-24T06:01:34;13.38;;;4.20;;
78004;SDS011;67209;51.698;-0.292;2023-04-24T06:04:01;9.02;;;2.78;;
78004;SDS011;67209;51.698;-0.292;2023-04-24T06:06:27;6.60;;;2.90;;
78004;SDS011;67209;51.698;-0.292;2023-04-24T06:08:53;8.15;;;3.10;;
78004;SDS011;67209;51.698;-0.292;2023-04-24T06:11:20;7.95;;;3.55;;
78004;SDS011;67209;51.698;-0.292;2023-04-24T06:13:47;8.90;;;2.88;;
78004;SDS011;67209;51.698;-0.292;2023-04-24T06:16:13;10.30;;;3.17;;
78004;SDS011;67209;51.698;-0.292;2023-04-24T06:18:39;8.10;;;2.63;;
78004;SDS011;67209;51.698;-0.292;2023-04-24T06:21:05;6.30;;;2.55;;
78004;SDS011;67209;51.698;-0.292;2023-04-24T06:23:31;5.97;;;2.45;;
78004;SDS011;67209;51.698;-0.292;2023-04-24T06:25:58;5.18;;;2.20;;
78004;SDS011;67209;51.698;-0.292;2023-04-24T06:28:24;7.47;;;2.78;;
78004;SDS011;67209;51.698;-0.292;2023-04-24T06:30:50;7.78;;;2.67;;
78004;SDS011;67209;51.698;-0.292;2023-04-24T06:33:16;8.23;;;2.50;;
78004;SDS011;67209;51.698;-0.292;2023-04-24T06:35:42;6.07;;;2.40;;
78004;SDS011;67209;51.698;-0.292;2023-04-24T06:38:08;4.57;;;2.42;;
78004;SDS011;67209;51.698;-0.292;2023-04-24T06:40:34;6.05;;;2.15;;
78004;SDS011;67209;51.698;-0.292;2023-04-24T06:43:00;7.22;;;3.05;;
78004;SDS011;67209;51.698;-0.292;2023-04-24T06:45:28;7.13;;;2.10;;
78004;SDS011;67209;51.698;-0.292;2023-04-24T06:47:54;6.78;;;2.53;;
78004;SDS011;67209;51.698;-0.292;2023-04-24T06:50:20;7.32;;;2.42;;
78004;SDS011;67209;51.698;-0.292;2023-04-24T06:52:46;6.40;;;2.53;;
78004;SDS011;67209;51.698;-0.292;2023-04-24T06:55:12;3.92;;;2.17;;
78004;SDS011;67209;51.698;-0.292;2023-04-24T06:57:40;7.63;;;2.72;;
78004;SDS011;67209;51.698;-0.292;2023-04-24T07:00:06;6.65;;;2.33;;
78004;SDS011;67209;51.698;-0.292;2023-04-24T07:02:34;6.03;;;2.13;;
78004;SDS011;67209;51.698;-0.292;2023-04-24T07:05:00;8.13;;;3.33;;
78004;SDS011;67209;51.698;-0.292;2023-04-24T07:07:26;5.90;;;2.00;;
78004;SDS011;67209;51.698;-0.292;2023-04-24T07:09:52;10.43;;;2.42;;
78004;SDS011;67209;51.698;-0.292;2023-04-24T07:12:19;7.75;;;2.90;;
78004;SDS011;67209;51.698;-0.292;2023-04-24T07:14:46;6.07;;;2.45;;
78004;SDS011;67209;51.698;-0.292;2023-04-24T07:17:13;6.03;;;2.22;;
78004;SDS011;67209;51.698;-0.292;2023-04-24T07:19:39;8.45;;;2.70;;
78004;SDS011;67209;51.698;-0.292;2023-04-24T07:22:05;5.30;;;1.90;;
78004;SDS011;67209;51.698;-0.292;2023-04-24T07:24:31;4.65;;;1.92;;
78004;SDS011;67209;51.698;-0.292;2023-04-24T07:26:58;4.03;;;1.63;;
78004;SDS011;67209;51.698;-0.292;2023-04-24T07:29:24;5.53;;;1.95;;
78004;SDS011;67209;51.698;-0.292;2023-04-24T07:31:50;6.63;;;2.05;;
78004;SDS011;67209;51.698;-0.292;2023-04-24T07:34:17;3.25;;;1.20;;
78004;SDS011;67209;51.698;-0.292;2023-04-24T07:36:43;7.32;;;1.38;;
78004;SDS011;67209;51.698;-0.292;2023-04-24T07:39:09;5.68;;;2.05;;
78004;SDS011;67209;51.698;-0.292;2023-04-24T07:41:35;6.35;;;2.53;;
78004;SDS011;67209;51.698;-0.292;2023-04-24T07:44:01;6.57;;;2.05;;
78004;SDS011;67209;51.698;-0.292;2023-04-24T07:46:27;7.20;;;1.75;;
78004;SDS011;67209;51.698;-0.292;2023-04-24T07:48:54;3.67;;;1.65;;
78004;SDS011;67209;51.698;-0.292;2023-04-24T07:51:20;5.28;;;2.20;;
78004;SDS011;67209;51.698;-0.292;2023-04-24T07:53:46;4.22;;;1.83;;
78004;SDS011;67209;51.698;-0.292;2023-04-24T07:56:12;4.13;;;1.83;;
78004;SDS011;67209;51.698;-0.292;2023-04-24T07:58:38;4.65;;;1.60;;
78004;SDS011;67209;51.698;-0.292;2023-04-24T08:01:05;2.70;;;1.35;;
78004;SDS011;67209;51.698;-0.292;2023-04-24T08:03:31;8.77;;;2.72;;
78004;SDS011;67209;51.698;-0.292;2023-04-24T08:05:57;10.38;;;2.30;;
78004;SDS011;67209;51.698;-0.292;2023-04-24T08:08:23;4.35;;;1.58;;
78004;SDS011;67209;51.698;-0.292;2023-04-24T08:10:49;5.95;;;1.80;;
78004;SDS011;67209;51.698;-0.292;2023-04-24T08:13:15;7.82;;;2.15;;
78004;SDS011;67209;51.698;-0.292;2023-04-24T08:15:41;5.88;;;1.88;;
78004;SDS011;67209;51.698;-0.292;2023-04-24T08:18:07;3.05;;;1.60;;
78004;SDS011;67209;51.698;-0.292;2023-04-24T08:20:34;3.83;;;1.13;;
78004;SDS011;67209;51.698;-0.292;2023-04-24T08:23:01;5.13;;;2.00;;
78004;SDS011;67209;51.698;-0.292;2023-04-24T08:25:27;5.65;;;1.63;;
78004;SDS011;67209;51.698;-0.292;2023-04-24T08:27:53;2.60;;;1.25;;
78004;SDS011;67209;51.698;-0.292;2023-04-24T08:30:20;5.55;;;2.00;;
78004;SDS011;67209;51.698;-0.292;2023-04-24T08:32:46;3.88;;;1.75;;
78004;SDS011;67209;51.698;-0.292;2023-04-24T08:35:12;7.15;;;1.73;;
78004;SDS011;67209;51.698;-0.292;2023-04-24T08:37:38;4.60;;;1.90;;
78004;SDS011;67209;51.698;-0.292;2023-04-24T08:40:06;3.28;;;1.48;;
78004;SDS011;67209;51.698;-0.292;2023-04-24T08:42:32;8.52;;;1.83;;
78004;SDS011;67209;51.698;-0.292;2023-04-24T08:45:00;3.25;;;1.75;;
78004;SDS011;67209;51.698;-0.292;2023-04-24T08:47:27;4.22;;;1.90;;
78004;SDS011;67209;51.698;-0.292;2023-04-24T08:49:54;4.25;;;1.58;;
78004;SDS011;67209;51.698;-0.292;2023-04-24T08:52:21;4.43;;;1.48;;
78004;SDS011;67209;51.698;-0.292;2023-04-24T08:54:47;5.32;;;1.52;;
78004;SDS011;67209;51.698;-0.292;2023-04-24T08:57:14;2.20;;;1.33;;
78004;SDS011;67209;51.698;-0.292;2023-04-24T08:59:40;6.30;;;1.73;;
78004;SDS011;67209;51.698;-0.292;2023-04-24T09:02:08;3.08;;;1.70;;
78004;SDS011;67209;51.698;-0.292;2023-04-24T09:04:35;6.25;;;1.70;;
78004;SDS011;67209;51.698;-0.292;2023-04-24T09:07:01;4.53;;;1.50;;
78004;SDS011;67209;51.698;-0.292;2023-04-24T09:09:28;7.15;;;1.92;;
78004;SDS011;67209;51.698;-0.292;2023-04-24T09:11:56;3.30;;;1.20;;
78004;SDS011;67209;51.698;-0.292;2023-04-24T09:14:22;3.72;;;1.27;;
78004;SDS011;67209;51.698;-0.292;2023-04-24T09:16:49;7.10;;;2.15;;
78004;SDS011;67209;51.698;-0.292;2023-04-24T09:19:15;5.88;;;1.80;;
78004;SDS011;67209;51.698;-0.292;2023-04-24T09:21:41;4.88;;;1.73;;
78004;SDS011;67209;51.698;-0.292;2023-04-24T09:24:14;6.63;;;1.90;;
78004;SDS011;67209;51.698;-0.292;2023-04-24T09:26:43;6.07;;;2.28;;
78004;SDS011;67209;51.698;-0.292;2023-04-24T09:29:13;3.17;;;1.63;;
78004;SDS011;67209;51.698;-0.292;2023-04-24T09:31:40;4.78;;;2.00;;
78004;SDS011;67209;51.698;-0.292;2023-04-24T09:34:06;4.85;;;1.63;;
78004;SDS011;67209;51.698;-0.292;2023-04-24T09:36:39;6.07;;;1.50;;
78004;SDS011;67209;51.698;-0.292;2023-04-24T09:39:09;6.30;;;1.65;;
78004;SDS011;67209;51.698;-0.292;2023-04-24T09:41:57;4.65;;;1.73;;
78004;SDS011;67209;51.698;-0.292;2023-04-24T09:44:27;6.82;;;2.20;;
78004;SDS011;67209;51.698;-0.292;2023-04-24T09:46:58;4.75;;;2.08;;
78004;SDS011;67209;51.698;-0.292;2023-04-24T09:49:25;5.97;;;2.50;;
78004;SDS011;67209;51.698;-0.292;2023-04-24T09:51:51;3.20;;;1.38;;
78004;SDS011;67209;51.698;-0.292;2023-04-24T09:54:19;8.52;;;2.25;;
78004;SDS011;67209;51.698;-0.292;2023-04-24T09:56:46;6.15;;;1.88;;
78004;SDS011;67209;51.698;-0.292;2023-04-24T09:59:16;5.80;;;2.10;;
78004;SDS011;67209;51.698;-0.292;2023-04-24T10:01:42;4.53;;;1.90;;
78004;SDS011;67209;51.698;-0.292;2023-04-24T10:04:17;4.85;;;1.83;;
78004;SDS011;67209;51.698;-0.292;2023-04-24T10:06:43;7.38;;;1.90;;
78004;SDS011;67209;51.698;-0.292;2023-04-24T10:09:10;6.90;;;2.13;;
78004;SDS011;67209;51.698;-0.292;2023-04-24T10:11:37;5.97;;;2.00;;
78004;SDS011;67209;51.698;-0.292;2023-04-24T10:14:06;8.63;;;2.40;;
78004;SDS011;67209;51.698;-0.292;2023-04-24T10:16:32;5.32;;;2.15;;
78004;SDS011;67209;51.698;-0.292;2023-04-24T10:18:59;4.85;;;1.98;;
78004;SDS011;67209;51.698;-0.292;2023-04-24T10:21:26;10.05;;;2.20;;
78004;SDS011;67209;51.698;-0.292;2023-04-24T10:23:52;5.10;;;2.20;;
78004;SDS011;67209;51.698;-0.292;2023-04-24T10:26:19;6.40;;;2.92;;
78004;SDS011;67209;51.698;-0.292;2023-04-24T10:28:46;6.53;;;2.80;;
78004;SDS011;67209;51.698;-0.292;2023-04-24T10:31:14;13.57;;;4.18;;
78004;SDS011;67209;51.698;-0.292;2023-04-24T10:33:41;6.93;;;3.83;;
78004;SDS011;67209;51.698;-0.292;2023-04-24T10:36:08;9.77;;;4.10;;
78004;SDS011;67209;51.698;-0.292;2023-04-24T10:38:35;9.20;;;4.32;;
78004;SDS011;67209;51.698;-0.292;2023-04-24T10:41:12;8.55;;;3.58;;
78004;SDS011;67209;51.698;-0.292;2023-04-24T10:43:44;10.77;;;4.68;;
78004;SDS011;67209;51.698;-0.292;2023-04-24T10:46:11;9.60;;;4.90;;
78004;SDS011;67209;51.698;-0.292;2023-04-24T10:48:42;8.70;;;4.18;;
78004;SDS011;67209;51.698;-0.292;2023-04-24T10:51:11;7.05;;;3.70;;
78004;SDS011;67209;51.698;-0.292;2023-04-24T10:53:37;10.13;;;4.35;;
78004;SDS011;67209;51.698;-0.292;2023-04-24T10:56:04;4.95;;;2.35;;
78004;SDS011;67209;51.698;-0.292;2023-04-24T10:58:37;8.15;;;2.90;;
78004;SDS011;67209;51.698;-0.292;2023-04-24T11:01:05;6.75;;;2.45;;
78004;SDS011;67209;51.698;-0.292;2023-04-24T11:03:32;7.30;;;2.65;;
78004;SDS011;67209;51.698;-0.292;2023-04-24T11:08:29;5.43;;;2.20;;
78004;SDS011;67209;51.698;-0.292;2023-04-24T11:13:24;8.32;;;2.30;;
78004;SDS011;67209;51.698;-0.292;2023-04-24T11:18:38;4.00;;;2.08;;
78004;SDS011;67209;51.698;-0.292;2023-04-24T11:21:17;4.10;;;1.95;;
78004;SDS011;67209;51.698;-0.292;2023-04-24T11:23:44;4.60;;;2.22;;
78004;SDS011;67209;51.698;-0.292;2023-04-24T11:26:28;8.68;;;2.83;;
78004;SDS011;67209;51.698;-0.292;2023-04-24T11:29:05;4.53;;;1.85;;
78004;SDS011;67209;51.698;-0.292;2023-04-24T11:31:39;5.00;;;2.05;;
78004;SDS011;67209;51.698;-0.292;2023-04-24T11:34:10;5.30;;;2.20;;
78004;SDS011;67209;51.698;-0.292;2023-04-24T11:36:37;5.22;;;2.00;;
78004;SDS011;67209;51.698;-0.292;2023-04-24T11:39:03;7.13;;;2.13;;
78004;SDS011;67209;51.698;-0.292;2023-04-24T11:41:29;5.07;;;2.20;;
78004;SDS011;67209;51.698;-0.292;2023-04-24T11:43:55;5.90;;;2.67;;
78004;SDS011;67209;51.698;-0.292;2023-04-24T11:46:22;6.75;;;2.80;;
78004;SDS011;67209;51.698;-0.292;2023-04-24T11:48:48;5.20;;;2.65;;
78004;SDS011;67209;51.698;-0.292;2023-04-24T11:51:14;6.55;;;2.83;;
78004;SDS011;67209;51.698;-0.292;2023-04-24T11:53:40;4.05;;;1.90;;
78004;SDS011;67209;51.698;-0.292;2023-04-24T11:56:06;4.15;;;2.22;;
78004;SDS011;67209;51.698;-0.292;2023-04-24T11:58:44;5.32;;;2.28;;
78004;SDS011;67209;51.698;-0.292;2023-04-24T12:01:10;6.07;;;2.47;;
78004;SDS011;67209;51.698;-0.292;2023-04-24T12:03:36;8.07;;;2.30;;
78004;SDS011;67209;51.698;-0.292;2023-04-24T12:06:05;6.90;;;2.90;;
78004;SDS011;67209;51.698;-0.292;2023-04-24T12:08:32;5.38;;;2.35;;
78004;SDS011;67209;51.698;-0.292;2023-04-24T12:11:02;5.38;;;2.08;;
78004;SDS011;67209;51.698;-0.292;2023-04-24T12:13:28;5.90;;;2.42;;
78004;SDS011;67209;51.698;-0.292;2023-04-24T12:15:56;4.85;;;2.38;;
78004;SDS011;67209;51.698;-0.292;2023-04-24T12:18:22;3.70;;;2.15;;
78004;SDS011;67209;51.698;-0.292;2023-04-24T12:20:48;4.53;;;2.33;;
78004;SDS011;67209;51.698;-0.292;2023-04-24T12:23:15;6.07;;;2.40;;
78004;SDS011;67209;51.698;-0.292;2023-04-24T12:25:42;3.72;;;1.70;;
78004;SDS011;67209;51.698;-0.292;2023-04-24T12:28:11;4.75;;;1.70;;
78004;SDS011;67209;51.698;-0.292;2023-04-24T12:30:42;5.55;;;2.03;;
78004;SDS011;67209;51.698;-0.292;2023-04-24T12:33:09;4.15;;;2.13;;
78004;SDS011;67209;51.698;-0.292;2023-04-24T12:35:36;5.43;;;2.38;;
78004;SDS011;67209;51.698;-0.292;2023-04-24T12:38:12;4.88;;;2.67;;
78004;SDS011;67209;51.698;-0.292;2023-04-24T12:40:39;7.20;;;2.53;;
78004;SDS011;67209;51.698;-0.292;2023-04-24T12:43:13;7.22;;;2.25;;
78004;SDS011;67209;51.698;-0.292;2023-04-24T12:45:40;3.90;;;1.50;;
78004;SDS011;67209;51.698;-0.292;2023-04-24T12:48:06;3.65;;;2.28;;
78004;SDS011;67209;51.698;-0.292;2023-04-24T12:50:32;5.15;;;2.35;;
78004;SDS011;67209;51.698;-0.292;2023-04-24T12:52:58;7.55;;;2.45;;
78004;SDS011;67209;51.698;-0.292;2023-04-24T12:55:24;5.38;;;2.33;;
78004;SDS011;67209;51.698;-0.292;2023-04-24T12:57:50;4.22;;;2.40;;
78004;SDS011;67209;51.698;-0.292;2023-04-24T13:00:17;3.72;;;2.13;;
78004;SDS011;67209;51.698;-0.292;2023-04-24T13:02:44;6.63;;;2.33;;
78004;SDS011;67209;51.698;-0.292;2023-04-24T13:05:10;5.70;;;2.50;;
78004;SDS011;67209;51.698;-0.292;2023-04-24T13:07:36;6.03;;;1.80;;
78004;SDS011;67209;51.698;-0.292;2023-04-24T13:10:02;4.18;;;2.40;;
78004;SDS011;67209;51.698;-0.292;2023-04-24T13:12:28;4.25;;;1.70;;
78004;SDS011;67209;51.698;-0.292;2023-04-24T13:14:54;4.53;;;1.83;;
78004;SDS011;67209;51.698;-0.292;2023-04-24T13:17:21;3.83;;;2.05;;
78004;SDS011;67209;51.698;-0.292;2023-04-24T13:19:49;3.85;;;1.75;;
78004;SDS011;67209;51.698;-0.292;2023-04-24T13:22:15;3.83;;;1.58;;
78004;SDS011;67209;51.698;-0.292;2023-04-24T13:24:43;3.80;;;1.83;;
78004;SDS011;67209;51.698;-0.292;2023-04-24T13:27:09;4.63;;;2.10;;
78004;SDS011;67209;51.698;-0.292;2023-04-24T13:29:36;4.47;;;1.85;;
78004;SDS011;67209;51.698;-0.292;2023-04-24T13:32:02;5.40;;;2.30;;
78004;SDS011;67209;51.698;-0.292;2023-04-24T13:34:28;3.33;;;1.80;;
78004;SDS011;67209;51.698;-0.292;2023-04-24T13:36:55;3.67;;;1.98;;
78004;SDS011;67209;51.698;-0.292;2023-04-24T13:39:22;4.13;;;1.98;;
78004;SDS011;67209;51.698;-0.292;2023-04-24T13:41:48;5.03;;;1.80;;
78004;SDS011;67209;51.698;-0.292;2023-04-24T13:44:14;3.58;;;2.00;;
78004;SDS011;67209;51.698;-0.292;2023-04-24T13:46:41;3.72;;;1.95;;
78004;SDS011;67209;51.698;-0.292;2023-04-24T13:49:09;2.28;;;1.33;;
78004;SDS011;67209;51.698;-0.292;2023-04-24T13:51:35;5.40;;;1.77;;
78004;SDS011;67209;51.698;-0.292;2023-04-24T13:54:01;2.88;;;1.33;;
78004;SDS011;67209;51.698;-0.292;2023-04-24T13:56:28;4.97;;;1.50;;
78004;SDS011;67209;51.698;-0.292;2023-04-24T13:58:54;2.90;;;1.30;;
78004;SDS011;67209;51.698;-0.292;2023-04-24T14:01:20;5.18;;;1.73;;
78004;SDS011;67209;51.698;-0.292;2023-04-24T14:03:50;3.65;;;1.73;;
78004;SDS011;67209;51.698;-0.292;2023-04-24T14:06:16;4.22;;;1.63;;
78004;SDS011;67209;51.698;-0.292;2023-04-24T14:08:42;5.63;;;2.25;;
78004;SDS011;67209;51.698;-0.292;2023-04-24T14:11:08;4.30;;;1.77;;
78004;SDS011;67209;51.698;-0.292;2023-04-24T14:13:35;4.25;;;1.73;;
78004;SDS011;67209;51.698;-0.292;2023-04-24T14:16:01;3.97;;;1.88;;
78004;SDS011;67209;51.698;-0.292;2023-04-24T14:18:27;4.55;;;1.90;;
78004;SDS011;67209;51.698;-0.292;2023-04-24T14:20:53;6.32;;;2.13;;
78004;SDS011;67209;51.698;-0.292;2023-04-24T14:23:19;3.80;;;1.90;;
78004;SDS011;67209;51.698;-0.292;2023-04-24T14:25:46;4.13;;;1.67;;
78004;SDS011;67209;51.698;-0.292;2023-04-24T14:28:15;3.95;;;1.67;;
78004;SDS011;67209;51.698;-0.292;2023-04-24T14:30:41;2.05;;;1.10;;
78004;SDS011;67209;51.698;-0.292;2023-04-24T14:33:07;4.22;;;1.88;;
78004;SDS011;67209;51.698;-0.292;2023-04-24T14:35:33;3.40;;;1.15;;
78004;SDS011;67209;51.698;-0.292;2023-04-24T14:38:00;2.50;;;1.17;;